sensor_id;sensor_type;location;lat;lon;timestamp;temperature;humidity
9215;DHT22;4642;51.364;6.788;2022-11-20T00:01:19;0.00;99.90
9215;DHT22;4642;51.364;6.788;2022-11-20T00:03:45;0.00;99.90
9215;DHT22;4642;51.364;6.788;2022-11-20T00:06:14;0.10;99.90
9215;DHT22;4642;51.364;6.788;2022-11-20T00:08:40;0.10;99.90
9215;DHT22;4642;51.364;6.788;2022-11-20T00:11:07;0.10;99.90
9215;DHT22;4642;51.364;6.788;2022-11-20T00:13:34;0.10;99.90
9215;DHT22;4642;51.364;6.788;2022-11-20T00:16:01;0.10;99.90
9215;DHT22;4642;51.364;6.788;2022-11-20T00:18:28;0.10;99.90
9215;DHT22;4642;51.364;6.788;2022-11-20T00:20:59;0.10;99.90
9215;DHT22;4642;51.364;6.788;2022-11-20T00:23:25;0.20;99.90
9215;DHT22;4642;51.364;6.788;2022-11-20T00:25:50;0.20;99.90
9215;DHT22;4642;51.364;6.788;2022-11-20T00:28:16;0.20;99.90
9215;DHT22;4642;51.364;6.788;2022-11-20T00:30:41;0.20;99.90
9215;DHT22;4642;51.364;6.788;2022-11-20T00:33:07;0.20;99.90
9215;DHT22;4642;51.364;6.788;2022-11-20T00:35:32;0.20;99.90
9215;DHT22;4642;51.364;6.788;2022-11-20T00:37:58;0.30;99.90
9215;DHT22;4642;51.364;6.788;2022-11-20T00:40:23;0.30;99.90
9215;DHT22;4642;51.364;6.788;2022-11-20T00:42:49;0.30;99.90
9215;DHT22;4642;51.364;6.788;2022-11-20T00:45:14;0.40;99.90
9215;DHT22;4642;51.364;6.788;2022-11-20T00:47:40;0.50;99.90
9215;DHT22;4642;51.364;6.788;2022-11-20T00:50:06;0.40;99.90
9215;DHT22;4642;51.364;6.788;2022-11-20T00:52:31;0.50;99.90
9215;DHT22;4642;51.364;6.788;2022-11-20T00:54:57;0.50;99.90
9215;DHT22;4642;51.364;6.788;2022-11-20T00:57:22;0.50;99.90
9215;DHT22;4642;51.364;6.788;2022-11-20T00:59:48;0.60;99.90
9215;DHT22;4642;51.364;6.788;2022-11-20T01:02:13;0.60;99.90
9215;DHT22;4642;51.364;6.788;2022-11-20T01:04:40;0.60;99.90
9215;DHT22;4642;51.364;6.788;2022-11-20T01:07:06;0.70;99.90
9215;DHT22;4642;51.364;6.788;2022-11-20T01:09:31;0.70;99.90
9215;DHT22;4642;51.364;6.788;2022-11-20T01:11:57;0.70;99.90
9215;DHT22;4642;51.364;6.788;2022-11-20T01:14:22;0.70;99.90
9215;DHT22;4642;51.364;6.788;2022-11-20T01:16:49;0.70;99.90
9215;DHT22;4642;51.364;6.788;2022-11-20T01:19:19;0.80;99.90
9215;DHT22;4642;51.364;6.788;2022-11-20T01:21:47;0.80;99.90
9215;DHT22;4642;51.364;6.788;2022-11-20T01:24:14;0.80;99.90
9215;DHT22;4642;51.364;6.788;2022-11-20T01:26:42;0.80;99.90
9215;DHT22;4642;51.364;6.788;2022-11-20T01:29:13;0.80;99.90
9215;DHT22;4642;51.364;6.788;2022-11-20T01:31:39;0.80;99.90
9215;DHT22;4642;51.364;6.788;2022-11-20T01:34:13;0.90;99.90
9215;DHT22;4642;51.364;6.788;2022-11-20T01:36:40;0.90;99.90
9215;DHT22;4642;51.364;6.788;2022-11-20T01:39:11;0.90;99.90
9215;DHT22;4642;51.364;6.788;2022-11-20T01:41:37;0.90;99.90
9215;DHT22;4642;51.364;6.788;2022-11-20T01:47:16;0.90;99.90
9215;DHT22;4642;51.364;6.788;2022-11-20T01:49:48;0.90;99.90
9215;DHT22;4642;51.364;6.788;2022-11-20T01:52:18;1.00;99.90
9215;DHT22;4642;51.364;6.788;2022-11-20T01:54:59;1.00;99.90
9215;DHT22;4642;51.364;6.788;2022-11-20T01:57:28;1.00;99.90
9215;DHT22;4642;51.364;6.788;2022-11-20T02:00:00;1.10;99.90
9215;DHT22;4642;51.364;6.788;2022-11-20T02:02:26;1.10;99.90
9215;DHT22;4642;51.364;6.788;2022-11-20T02:04:54;1.10;99.90
9215;DHT22;4642;51.364;6.788;2022-11-20T02:07:22;1.10;99.90
9215;DHT22;4642;51.364;6.788;2022-11-20T02:09:48;1.10;99.90
9215;DHT22;4642;51.364;6.788;2022-11-20T02:12:14;1.20;99.90
9215;DHT22;4642;51.364;6.788;2022-11-20T02:15:00;1.20;99.90
9215;DHT22;4642;51.364;6.788;2022-11-20T02:17:26;1.20;99.90
9215;DHT22;4642;51.364;6.788;2022-11-20T02:19:52;1.20;99.90
9215;DHT22;4642;51.364;6.788;2022-11-20T02:22:28;1.20;99.90
9215;DHT22;4642;51.364;6.788;2022-11-20T02:24:54;1.30;99.90
9215;DHT22;4642;51.364;6.788;2022-11-20T02:27:20;1.30;99.90
9215;DHT22;4642;51.364;6.788;2022-11-20T02:29:55;1.30;99.90
9215;DHT22;4642;51.364;6.788;2022-11-20T02:32:41;1.30;99.90
9215;DHT22;4642;51.364;6.788;2022-11-20T02:37:54;1.30;99.90
9215;DHT22;4642;51.364;6.788;2022-11-20T02:40:20;1.40;99.90
9215;DHT22;4642;51.364;6.788;2022-11-20T02:42:46;1.30;99.90
9215;DHT22;4642;51.364;6.788;2022-11-20T02:45:11;1.40;99.90
9215;DHT22;4642;51.364;6.788;2022-11-20T02:47:37;1.40;99.90
9215;DHT22;4642;51.364;6.788;2022-11-20T02:50:03;1.40;99.90
9215;DHT22;4642;51.364;6.788;2022-11-20T02:52:30;1.40;99.90
9215;DHT22;4642;51.364;6.788;2022-11-20T02:54:55;1.40;99.90
9215;DHT22;4642;51.364;6.788;2022-11-20T02:57:21;1.40;99.90
9215;DHT22;4642;51.364;6.788;2022-11-20T02:59:46;1.40;99.90
9215;DHT22;4642;51.364;6.788;2022-11-20T03:02:12;1.40;99.90
9215;DHT22;4642;51.364;6.788;2022-11-20T03:04:37;1.40;99.90
9215;DHT22;4642;51.364;6.788;2022-11-20T03:07:03;1.40;99.90
9215;DHT22;4642;51.364;6.788;2022-11-20T03:09:29;1.40;99.90
9215;DHT22;4642;51.364;6.788;2022-11-20T03:11:55;1.40;99.90
9215;DHT22;4642;51.364;6.788;2022-11-20T03:14:20;1.40;99.90
9215;DHT22;4642;51.364;6.788;2022-11-20T03:16:46;1.50;99.90
9215;DHT22;4642;51.364;6.788;2022-11-20T03:19:13;1.50;99.90
9215;DHT22;4642;51.364;6.788;2022-11-20T03:21:39;1.50;99.90
9215;DHT22;4642;51.364;6.788;2022-11-20T03:24:05;1.50;99.90
9215;DHT22;4642;51.364;6.788;2022-11-20T03:26:31;1.50;99.90
9215;DHT22;4642;51.364;6.788;2022-11-20T03:28:59;1.50;99.90
9215;DHT22;4642;51.364;6.788;2022-11-20T03:31:27;1.50;99.90
9215;DHT22;4642;51.364;6.788;2022-11-20T03:33:53;1.50;99.90
9215;DHT22;4642;51.364;6.788;2022-11-20T03:36:19;1.50;99.90
9215;DHT22;4642;51.364;6.788;2022-11-20T03:38:46;1.60;99.90
9215;DHT22;4642;51.364;6.788;2022-11-20T03:41:14;1.60;99.90
9215;DHT22;4642;51.364;6.788;2022-11-20T03:43:41;1.60;99.90
9215;DHT22;4642;51.364;6.788;2022-11-20T03:46:07;1.60;99.90
9215;DHT22;4642;51.364;6.788;2022-11-20T03:48:32;1.60;99.90
9215;DHT22;4642;51.364;6.788;2022-11-20T03:51:09;1.60;99.90
9215;DHT22;4642;51.364;6.788;2022-11-20T03:53:35;1.60;99.90
9215;DHT22;4642;51.364;6.788;2022-11-20T03:59:35;1.60;99.90
9215;DHT22;4642;51.364;6.788;2022-11-20T04:02:01;1.70;99.90
9215;DHT22;4642;51.364;6.788;2022-11-20T04:04:26;1.70;99.90
9215;DHT22;4642;51.364;6.788;2022-11-20T04:06:52;1.70;99.90
9215;DHT22;4642;51.364;6.788;2022-11-20T04:09:17;1.70;99.90
9215;DHT22;4642;51.364;6.788;2022-11-20T04:11:43;1.70;99.90
9215;DHT22;4642;51.364;6.788;2022-11-20T04:14:14;1.70;99.90
9215;DHT22;4642;51.364;6.788;2022-11-20T04:16:40;1.70;99.90
9215;DHT22;4642;51.364;6.788;2022-11-20T04:19:09;1.70;99.90
9215;DHT22;4642;51.364;6.788;2022-11-20T04:21:35;1.80;99.90
9215;DHT22;4642;51.364;6.788;2022-11-20T04:24:01;1.80;99.90
9215;DHT22;4642;51.364;6.788;2022-11-20T04:26:28;1.80;99.90
9215;DHT22;4642;51.364;6.788;2022-11-20T04:28:54;1.80;99.90
9215;DHT22;4642;51.364;6.788;2022-11-20T04:31:32;1.80;99.90
9215;DHT22;4642;51.364;6.788;2022-11-20T04:34:02;1.80;99.90
9215;DHT22;4642;51.364;6.788;2022-11-20T04:36:29;1.80;99.90
9215;DHT22;4642;51.364;6.788;2022-11-20T04:38:57;1.90;99.90
9215;DHT22;4642;51.364;6.788;2022-11-20T04:41:25;1.80;99.90
9215;DHT22;4642;51.364;6.788;2022-11-20T04:43:53;1.80;99.90
9215;DHT22;4642;51.364;6.788;2022-11-20T04:46:24;1.80;99.90
9215;DHT22;4642;51.364;6.788;2022-11-20T04:48:50;1.70;99.90
9215;DHT22;4642;51.364;6.788;2022-11-20T04:51:15;1.70;99.90
9215;DHT22;4642;51.364;6.788;2022-11-20T04:53:41;1.80;99.90
9215;DHT22;4642;51.364;6.788;2022-11-20T04:56:08;1.80;99.90
9215;DHT22;4642;51.364;6.788;2022-11-20T04:58:35;1.80;99.90
9215;DHT22;4642;51.364;6.788;2022-11-20T05:01:05;1.80;99.90
9215;DHT22;4642;51.364;6.788;2022-11-20T05:03:31;1.80;99.90
9215;DHT22;4642;51.364;6.788;2022-11-20T05:06:00;1.90;99.90
9215;DHT22;4642;51.364;6.788;2022-11-20T05:08:26;1.90;99.90
9215;DHT22;4642;51.364;6.788;2022-11-20T05:10:51;1.90;99.90
9215;DHT22;4642;51.364;6.788;2022-11-20T05:13:17;2.00;99.90
9215;DHT22;4642;51.364;6.788;2022-11-20T05:15:42;1.90;99.90
9215;DHT22;4642;51.364;6.788;2022-11-20T05:18:08;2.00;99.90
9215;DHT22;4642;51.364;6.788;2022-11-20T05:20:33;2.00;99.90
9215;DHT22;4642;51.364;6.788;2022-11-20T05:23:01;2.00;99.90
9215;DHT22;4642;51.364;6.788;2022-11-20T05:25:26;2.00;99.90
9215;DHT22;4642;51.364;6.788;2022-11-20T05:27:53;2.00;99.90
9215;DHT22;4642;51.364;6.788;2022-11-20T05:30:18;2.00;99.90
9215;DHT22;4642;51.364;6.788;2022-11-20T05:32:44;2.00;99.90
9215;DHT22;4642;51.364;6.788;2022-11-20T05:35:09;2.00;99.90
9215;DHT22;4642;51.364;6.788;2022-11-20T05:37:35;2.00;99.90
9215;DHT22;4642;51.364;6.788;2022-11-20T05:40:00;2.00;99.90
9215;DHT22;4642;51.364;6.788;2022-11-20T05:42:26;2.00;99.90
9215;DHT22;4642;51.364;6.788;2022-11-20T05:45:02;2.10;99.90
9215;DHT22;4642;51.364;6.788;2022-11-20T05:47:32;2.00;99.90
9215;DHT22;4642;51.364;6.788;2022-11-20T05:49:58;2.00;99.90
9215;DHT22;4642;51.364;6.788;2022-11-20T05:52:23;2.00;99.90
9215;DHT22;4642;51.364;6.788;2022-11-20T05:54:49;2.00;99.90
9215;DHT22;4642;51.364;6.788;2022-11-20T05:57:14;2.10;99.90
9215;DHT22;4642;51.364;6.788;2022-11-20T05:59:40;2.10;99.90
9215;DHT22;4642;51.364;6.788;2022-11-20T06:02:05;2.10;99.90
9215;DHT22;4642;51.364;6.788;2022-11-20T06:04:31;2.10;99.90
9215;DHT22;4642;51.364;6.788;2022-11-20T06:06:56;2.00;99.90
9215;DHT22;4642;51.364;6.788;2022-11-20T06:09:22;2.00;99.90
9215;DHT22;4642;51.364;6.788;2022-11-20T06:11:47;2.00;99.90
9215;DHT22;4642;51.364;6.788;2022-11-20T06:14:13;2.00;99.90
9215;DHT22;4642;51.364;6.788;2022-11-20T06:16:38;2.00;99.90
9215;DHT22;4642;51.364;6.788;2022-11-20T06:19:04;2.00;99.90
9215;DHT22;4642;51.364;6.788;2022-11-20T06:21:29;2.10;99.90
9215;DHT22;4642;51.364;6.788;2022-11-20T06:23:55;2.00;99.90
9215;DHT22;4642;51.364;6.788;2022-11-20T06:26:23;2.10;99.90
9215;DHT22;4642;51.364;6.788;2022-11-20T06:28:49;2.00;99.90
9215;DHT22;4642;51.364;6.788;2022-11-20T06:31:17;2.00;99.90
9215;DHT22;4642;51.364;6.788;2022-11-20T06:33:44;2.00;99.90
9215;DHT22;4642;51.364;6.788;2022-11-20T06:36:12;2.00;99.90
9215;DHT22;4642;51.364;6.788;2022-11-20T06:38:38;2.00;99.90
9215;DHT22;4642;51.364;6.788;2022-11-20T06:41:05;2.10;99.90
9215;DHT22;4642;51.364;6.788;2022-11-20T06:43:31;2.00;99.90
9215;DHT22;4642;51.364;6.788;2022-11-20T06:45:58;2.10;99.90
9215;DHT22;4642;51.364;6.788;2022-11-20T06:48:28;2.00;99.90
9215;DHT22;4642;51.364;6.788;2022-11-20T06:50:54;2.00;99.90
9215;DHT22;4642;51.364;6.788;2022-11-20T06:53:19;2.00;99.90
9215;DHT22;4642;51.364;6.788;2022-11-20T06:55:46;2.00;99.90
9215;DHT22;4642;51.364;6.788;2022-11-20T06:58:13;2.10;99.90
9215;DHT22;4642;51.364;6.788;2022-11-20T07:00:39;2.10;99.90
9215;DHT22;4642;51.364;6.788;2022-11-20T07:03:05;2.10;99.90
9215;DHT22;4642;51.364;6.788;2022-11-20T07:05:32;2.10;99.90
9215;DHT22;4642;51.364;6.788;2022-11-20T07:07:57;2.10;99.90
9215;DHT22;4642;51.364;6.788;2022-11-20T07:10:24;2.10;99.90
9215;DHT22;4642;51.364;6.788;2022-11-20T07:12:50;2.10;99.90
9215;DHT22;4642;51.364;6.788;2022-11-20T07:15:17;2.10;99.90
9215;DHT22;4642;51.364;6.788;2022-11-20T07:17:43;2.10;99.90
9215;DHT22;4642;51.364;6.788;2022-11-20T07:20:09;2.10;99.90
9215;DHT22;4642;51.364;6.788;2022-11-20T07:22:34;2.10;99.90
9215;DHT22;4642;51.364;6.788;2022-11-20T07:25:00;2.10;99.90
9215;DHT22;4642;51.364;6.788;2022-11-20T07:27:25;2.10;99.90
9215;DHT22;4642;51.364;6.788;2022-11-20T07:29:51;2.10;99.90
9215;DHT22;4642;51.364;6.788;2022-11-20T07:32:16;2.10;99.90
9215;DHT22;4642;51.364;6.788;2022-11-20T07:34:42;2.10;99.90
9215;DHT22;4642;51.364;6.788;2022-11-20T07:37:08;2.10;99.90
9215;DHT22;4642;51.364;6.788;2022-11-20T07:39:33;2.10;99.90
9215;DHT22;4642;51.364;6.788;2022-11-20T07:41:59;2.00;99.90
9215;DHT22;4642;51.364;6.788;2022-11-20T07:44:24;2.00;99.90
9215;DHT22;4642;51.364;6.788;2022-11-20T07:46:50;2.00;99.90
9215;DHT22;4642;51.364;6.788;2022-11-20T07:49:15;2.00;99.90
9215;DHT22;4642;51.364;6.788;2022-11-20T07:51:41;1.90;99.90
9215;DHT22;4642;51.364;6.788;2022-11-20T07:54:06;2.00;99.90
9215;DHT22;4642;51.364;6.788;2022-11-20T07:56:32;1.90;99.90
9215;DHT22;4642;51.364;6.788;2022-11-20T07:58:57;2.00;99.90
9215;DHT22;4642;51.364;6.788;2022-11-20T08:01:23;1.90;99.90
9215;DHT22;4642;51.364;6.788;2022-11-20T08:03:48;2.00;99.90
9215;DHT22;4642;51.364;6.788;2022-11-20T08:06:14;2.00;99.90
9215;DHT22;4642;51.364;6.788;2022-11-20T08:08:40;2.00;99.90
9215;DHT22;4642;51.364;6.788;2022-11-20T08:11:06;2.00;99.90
9215;DHT22;4642;51.364;6.788;2022-11-20T08:13:50;2.10;99.90
9215;DHT22;4642;51.364;6.788;2022-11-20T08:16:34;2.10;99.90
9215;DHT22;4642;51.364;6.788;2022-11-20T08:18:59;2.10;99.90
9215;DHT22;4642;51.364;6.788;2022-11-20T08:21:25;2.20;99.90
9215;DHT22;4642;51.364;6.788;2022-11-20T08:23:51;2.30;99.90
9215;DHT22;4642;51.364;6.788;2022-11-20T08:26:16;2.30;99.90
9215;DHT22;4642;51.364;6.788;2022-11-20T08:28:42;2.30;99.90
9215;DHT22;4642;51.364;6.788;2022-11-20T08:31:07;2.40;99.90
9215;DHT22;4642;51.364;6.788;2022-11-20T08:33:35;2.40;99.90
9215;DHT22;4642;51.364;6.788;2022-11-20T08:36:02;2.50;99.90
9215;DHT22;4642;51.364;6.788;2022-11-20T08:38:28;2.50;99.90
9215;DHT22;4642;51.364;6.788;2022-11-20T08:41:02;2.60;99.90
9215;DHT22;4642;51.364;6.788;2022-11-20T08:43:46;2.70;99.90
9215;DHT22;4642;51.364;6.788;2022-11-20T08:46:12;2.70;99.90
9215;DHT22;4642;51.364;6.788;2022-11-20T08:48:38;2.80;99.90
9215;DHT22;4642;51.364;6.788;2022-11-20T08:51:04;2.80;99.90
9215;DHT22;4642;51.364;6.788;2022-11-20T08:53:29;2.80;99.90
9215;DHT22;4642;51.364;6.788;2022-11-20T08:55:56;2.90;99.90
9215;DHT22;4642;51.364;6.788;2022-11-20T08:58:22;2.90;99.90
9215;DHT22;4642;51.364;6.788;2022-11-20T09:00:48;2.90;99.90
9215;DHT22;4642;51.364;6.788;2022-11-20T09:03:13;3.00;99.90
9215;DHT22;4642;51.364;6.788;2022-11-20T09:05:39;2.90;99.90
9215;DHT22;4642;51.364;6.788;2022-11-20T09:08:04;3.00;99.90
9215;DHT22;4642;51.364;6.788;2022-11-20T09:10:30;3.00;99.90
9215;DHT22;4642;51.364;6.788;2022-11-20T09:12:56;3.10;99.90
9215;DHT22;4642;51.364;6.788;2022-11-20T09:15:22;3.10;99.90
9215;DHT22;4642;51.364;6.788;2022-11-20T09:17:58;3.20;99.90
9215;DHT22;4642;51.364;6.788;2022-11-20T09:20:25;3.20;99.90
9215;DHT22;4642;51.364;6.788;2022-11-20T09:22:51;3.30;99.90
9215;DHT22;4642;51.364;6.788;2022-11-20T09:25:17;3.30;99.90
9215;DHT22;4642;51.364;6.788;2022-11-20T09:27:42;3.40;99.90
9215;DHT22;4642;51.364;6.788;2022-11-20T09:30:11;3.40;99.90
9215;DHT22;4642;51.364;6.788;2022-11-20T09:32:38;3.40;99.90
9215;DHT22;4642;51.364;6.788;2022-11-20T09:35:04;3.40;99.90
9215;DHT22;4642;51.364;6.788;2022-11-20T09:37:30;3.50;99.90
9215;DHT22;4642;51.364;6.788;2022-11-20T09:39:55;3.50;99.90
9215;DHT22;4642;51.364;6.788;2022-11-20T09:50:26;3.50;99.90
9215;DHT22;4642;51.364;6.788;2022-11-20T09:55:43;3.60;99.90
9215;DHT22;4642;51.364;6.788;2022-11-20T10:01:08;3.80;99.90
9215;DHT22;4642;51.364;6.788;2022-11-20T10:04:04;3.80;99.90
9215;DHT22;4642;51.364;6.788;2022-11-20T10:06:47;3.90;99.90
9215;DHT22;4642;51.364;6.788;2022-11-20T10:09:31;3.90;99.90
9215;DHT22;4642;51.364;6.788;2022-11-20T10:12:07;3.90;99.90
9215;DHT22;4642;51.364;6.788;2022-11-20T10:15:04;3.90;99.90
9215;DHT22;4642;51.364;6.788;2022-11-20T10:17:51;4.00;99.90
9215;DHT22;4642;51.364;6.788;2022-11-20T10:20:44;4.00;99.90
9215;DHT22;4642;51.364;6.788;2022-11-20T10:23:25;4.00;99.90
9215;DHT22;4642;51.364;6.788;2022-11-20T10:26:01;4.10;99.90
9215;DHT22;4642;51.364;6.788;2022-11-20T10:28:40;4.10;99.90
9215;DHT22;4642;51.364;6.788;2022-11-20T10:31:24;4.10;99.90
9215;DHT22;4642;51.364;6.788;2022-11-20T10:33:53;4.20;99.90
9215;DHT22;4642;51.364;6.788;2022-11-20T10:36:25;4.20;99.90
9215;DHT22;4642;51.364;6.788;2022-11-20T10:38:57;4.20;99.90
9215;DHT22;4642;51.364;6.788;2022-11-20T10:41:27;4.20;99.90
9215;DHT22;4642;51.364;6.788;2022-11-20T10:44:10;4.30;99.90
9215;DHT22;4642;51.364;6.788;2022-11-20T10:46:43;4.40;99.90
9215;DHT22;4642;51.364;6.788;2022-11-20T10:49:15;4.40;99.90
9215;DHT22;4642;51.364;6.788;2022-11-20T10:52:52;4.40;99.90
9215;DHT22;4642;51.364;6.788;2022-11-20T10:58:01;4.50;99.90
9215;DHT22;4642;51.364;6.788;2022-11-20T11:00:31;4.50;99.90
9215;DHT22;4642;51.364;6.788;2022-11-20T11:02:57;4.60;99.90
9215;DHT22;4642;51.364;6.788;2022-11-20T11:05:44;4.60;99.90
9215;DHT22;4642;51.364;6.788;2022-11-20T11:08:15;4.60;99.90
9215;DHT22;4642;51.364;6.788;2022-11-20T11:10:55;4.60;99.90
9215;DHT22;4642;51.364;6.788;2022-11-20T11:13:26;4.60;99.90
9215;DHT22;4642;51.364;6.788;2022-11-20T11:15:53;4.50;99.90
9215;DHT22;4642;51.364;6.788;2022-11-20T11:18:29;4.60;99.90
9215;DHT22;4642;51.364;6.788;2022-11-20T11:20:57;4.60;99.90
9215;DHT22;4642;51.364;6.788;2022-11-20T11:23:43;4.60;99.90
9215;DHT22;4642;51.364;6.788;2022-11-20T11:26:22;4.60;99.90
9215;DHT22;4642;51.364;6.788;2022-11-20T11:29:02;4.70;99.90
9215;DHT22;4642;51.364;6.788;2022-11-20T11:31:31;4.80;99.90
9215;DHT22;4642;51.364;6.788;2022-11-20T11:34:12;4.80;99.90
9215;DHT22;4642;51.364;6.788;2022-11-20T11:36:38;4.80;99.90
9215;DHT22;4642;51.364;6.788;2022-11-20T11:39:06;4.90;99.90
9215;DHT22;4642;51.364;6.788;2022-11-20T11:41:35;4.90;99.90
9215;DHT22;4642;51.364;6.788;2022-11-20T11:44:17;4.90;99.90
9215;DHT22;4642;51.364;6.788;2022-11-20T11:47:03;5.00;99.90
9215;DHT22;4642;51.364;6.788;2022-11-20T11:49:29;5.00;99.90
9215;DHT22;4642;51.364;6.788;2022-11-20T11:52:12;5.00;99.90
9215;DHT22;4642;51.364;6.788;2022-11-20T11:55:01;5.00;99.90
9215;DHT22;4642;51.364;6.788;2022-11-20T12:00:14;5.00;99.90
9215;DHT22;4642;51.364;6.788;2022-11-20T12:15:35;5.00;99.90
9215;DHT22;4642;51.364;6.788;2022-11-20T12:18:09;5.00;99.90
9215;DHT22;4642;51.364;6.788;2022-11-20T12:20:45;5.10;99.90
9215;DHT22;4642;51.364;6.788;2022-11-20T12:29:41;5.10;99.90
9215;DHT22;4642;51.364;6.788;2022-11-20T12:35:00;5.20;99.90
9215;DHT22;4642;51.364;6.788;2022-11-20T12:37:49;5.10;99.90
9215;DHT22;4642;51.364;6.788;2022-11-20T12:40:40;5.20;99.90
9215;DHT22;4642;51.364;6.788;2022-11-20T12:43:27;5.20;99.90
9215;DHT22;4642;51.364;6.788;2022-11-20T12:54:46;5.20;99.90
9215;DHT22;4642;51.364;6.788;2022-11-20T12:57:21;5.20;99.90
9215;DHT22;4642;51.364;6.788;2022-11-20T13:00:23;5.30;99.90
9215;DHT22;4642;51.364;6.788;2022-11-20T13:03:19;5.20;99.90
9215;DHT22;4642;51.364;6.788;2022-11-20T13:06:17;5.20;99.90
9215;DHT22;4642;51.364;6.788;2022-11-20T13:08:56;5.20;99.90
9215;DHT22;4642;51.364;6.788;2022-11-20T13:11:33;5.30;99.90
9215;DHT22;4642;51.364;6.788;2022-11-20T13:14:23;5.30;99.90
9215;DHT22;4642;51.364;6.788;2022-11-20T13:19:27;5.30;99.90
9215;DHT22;4642;51.364;6.788;2022-11-20T13:21:53;5.30;99.90
9215;DHT22;4642;51.364;6.788;2022-11-20T13:26:45;5.20;99.90
9215;DHT22;4642;51.364;6.788;2022-11-20T13:29:18;5.20;99.90
9215;DHT22;4642;51.364;6.788;2022-11-20T13:31:46;5.20;99.90
9215;DHT22;4642;51.364;6.788;2022-11-20T13:34:14;5.20;99.90
9215;DHT22;4642;51.364;6.788;2022-11-20T13:36:53;5.20;99.90
9215;DHT22;4642;51.364;6.788;2022-11-20T13:39:33;5.20;99.90
9215;DHT22;4642;51.364;6.788;2022-11-20T13:42:15;5.20;99.90
9215;DHT22;4642;51.364;6.788;2022-11-20T13:44:52;5.20;99.90
9215;DHT22;4642;51.364;6.788;2022-11-20T13:47:24;5.20;99.90
9215;DHT22;4642;51.364;6.788;2022-11-20T13:49:51;5.20;99.90
9215;DHT22;4642;51.364;6.788;2022-11-20T13:52:45;5.20;99.90
9215;DHT22;4642;51.364;6.788;2022-11-20T13:55:36;5.20;99.90
9215;DHT22;4642;51.364;6.788;2022-11-20T13:58:05;5.20;99.90
9215;DHT22;4642;51.364;6.788;2022-11-20T14:00:44;5.20;99.90
9215;DHT22;4642;51.364;6.788;2022-11-20T14:03:20;5.20;99.90
9215;DHT22;4642;51.364;6.788;2022-11-20T14:06:25;5.20;99.90
9215;DHT22;4642;51.364;6.788;2022-11-20T14:08:52;5.20;99.90
9215;DHT22;4642;51.364;6.788;2022-11-20T14:11:20;5.20;99.90
9215;DHT22;4642;51.364;6.788;2022-11-20T14:14:16;5.20;99.90
9215;DHT22;4642;51.364;6.788;2022-11-20T14:16:43;5.20;99.90
9215;DHT22;4642;51.364;6.788;2022-11-20T14:19:24;5.30;99.90
9215;DHT22;4642;51.364;6.788;2022-11-20T14:22:14;5.30;99.90
9215;DHT22;4642;51.364;6.788;2022-11-20T14:24:41;5.30;99.90
9215;DHT22;4642;51.364;6.788;2022-11-20T14:27:18;5.20;99.90
9215;DHT22;4642;51.364;6.788;2022-11-20T14:29:47;5.20;99.90
9215;DHT22;4642;51.364;6.788;2022-11-20T14:32:19;5.30;99.90
9215;DHT22;4642;51.364;6.788;2022-11-20T14:34:47;5.20;99.90
9215;DHT22;4642;51.364;6.788;2022-11-20T14:37:21;5.30;99.90
9215;DHT22;4642;51.364;6.788;2022-11-20T14:39:53;5.30;99.90
9215;DHT22;4642;51.364;6.788;2022-11-20T14:42:21;5.30;99.90
9215;DHT22;4642;51.364;6.788;2022-11-20T14:44:48;5.30;99.90
9215;DHT22;4642;51.364;6.788;2022-11-20T14:47:19;5.30;99.90
9215;DHT22;4642;51.364;6.788;2022-11-20T14:49:46;5.30;99.90
9215;DHT22;4642;51.364;6.788;2022-11-20T14:52:18;5.20;99.90
9215;DHT22;4642;51.364;6.788;2022-11-20T14:54:49;5.30;99.90
9215;DHT22;4642;51.364;6.788;2022-11-20T14:57:35;5.30;99.90
9215;DHT22;4642;51.364;6.788;2022-11-20T15:00:19;5.20;99.90
9215;DHT22;4642;51.364;6.788;2022-11-20T15:02:47;5.30;99.90
9215;DHT22;4642;51.364;6.788;2022-11-20T15:05:14;5.30;99.90
9215;DHT22;4642;51.364;6.788;2022-11-20T15:07:43;5.30;99.90
9215;DHT22;4642;51.364;6.788;2022-11-20T15:10:24;5.30;99.90
9215;DHT22;4642;51.364;6.788;2022-11-20T15:13:03;5.30;99.90
9215;DHT22;4642;51.364;6.788;2022-11-20T15:18:04;5.30;99.90
9215;DHT22;4642;51.364;6.788;2022-11-20T15:20:32;5.20;99.90
9215;DHT22;4642;51.364;6.788;2022-11-20T15:22:58;5.20;99.90
9215;DHT22;4642;51.364;6.788;2022-11-20T15:25:24;5.20;99.90
9215;DHT22;4642;51.364;6.788;2022-11-20T15:27:56;5.20;99.90
9215;DHT22;4642;51.364;6.788;2022-11-20T15:30:22;5.20;99.90
9215;DHT22;4642;51.364;6.788;2022-11-20T15:32:48;5.20;99.90
9215;DHT22;4642;51.364;6.788;2022-11-20T15:35:15;5.20;99.90
9215;DHT22;4642;51.364;6.788;2022-11-20T15:37:41;5.20;99.90
9215;DHT22;4642;51.364;6.788;2022-11-20T15:40:07;5.20;99.90
9215;DHT22;4642;51.364;6.788;2022-11-20T15:42:34;5.20;99.90
9215;DHT22;4642;51.364;6.788;2022-11-20T15:45:00;5.20;99.90
9215;DHT22;4642;51.364;6.788;2022-11-20T15:47:30;5.20;99.90
9215;DHT22;4642;51.364;6.788;2022-11-20T15:49:56;5.20;99.90
9215;DHT22;4642;51.364;6.788;2022-11-20T15:52:22;5.20;99.90
9215;DHT22;4642;51.364;6.788;2022-11-20T15:54:47;5.20;99.90
9215;DHT22;4642;51.364;6.788;2022-11-20T15:57:13;5.20;99.90
9215;DHT22;4642;51.364;6.788;2022-11-20T15:59:39;5.20;99.90
9215;DHT22;4642;51.364;6.788;2022-11-20T16:02:14;5.20;99.90
9215;DHT22;4642;51.364;6.788;2022-11-20T16:04:40;5.20;99.90
9215;DHT22;4642;51.364;6.788;2022-11-20T16:07:06;5.20;99.90
9215;DHT22;4642;51.364;6.788;2022-11-20T16:09:31;5.30;99.90
9215;DHT22;4642;51.364;6.788;2022-11-20T16:11:57;5.20;99.90
9215;DHT22;4642;51.364;6.788;2022-11-20T16:14:26;5.20;99.90
9215;DHT22;4642;51.364;6.788;2022-11-20T16:17:10;5.20;99.90
9215;DHT22;4642;51.364;6.788;2022-11-20T16:19:36;5.20;99.90
9215;DHT22;4642;51.364;6.788;2022-11-20T16:22:01;5.20;99.90
9215;DHT22;4642;51.364;6.788;2022-11-20T16:24:27;5.20;99.90
9215;DHT22;4642;51.364;6.788;2022-11-20T16:26:56;5.20;99.90
9215;DHT22;4642;51.364;6.788;2022-11-20T16:29:21;5.20;99.90
9215;DHT22;4642;51.364;6.788;2022-11-20T16:31:47;5.20;99.90
9215;DHT22;4642;51.364;6.788;2022-11-20T16:34:12;5.20;99.90
9215;DHT22;4642;51.364;6.788;2022-11-20T16:36:41;5.20;99.90
9215;DHT22;4642;51.364;6.788;2022-11-20T16:39:07;5.20;99.90
9215;DHT22;4642;51.364;6.788;2022-11-20T16:41:33;5.20;99.90
9215;DHT22;4642;51.364;6.788;2022-11-20T16:44:01;5.20;99.90
9215;DHT22;4642;51.364;6.788;2022-11-20T16:46:29;5.20;99.90
9215;DHT22;4642;51.364;6.788;2022-11-20T16:48:59;5.20;99.90
9215;DHT22;4642;51.364;6.788;2022-11-20T16:51:26;5.20;99.90
9215;DHT22;4642;51.364;6.788;2022-11-20T16:53:52;5.20;99.90
9215;DHT22;4642;51.364;6.788;2022-11-20T16:56:22;5.20;99.90
9215;DHT22;4642;51.364;6.788;2022-11-20T16:58:49;5.20;99.90
9215;DHT22;4642;51.364;6.788;2022-11-20T17:01:17;5.20;99.90
9215;DHT22;4642;51.364;6.788;2022-11-20T17:03:45;5.30;99.90
9215;DHT22;4642;51.364;6.788;2022-11-20T17:06:18;5.20;99.90
9215;DHT22;4642;51.364;6.788;2022-11-20T17:08:45;5.10;99.90
9215;DHT22;4642;51.364;6.788;2022-11-20T17:11:12;5.30;99.90
9215;DHT22;4642;51.364;6.788;2022-11-20T17:13:39;5.30;99.90
9215;DHT22;4642;51.364;6.788;2022-11-20T17:16:09;5.30;99.90
9215;DHT22;4642;51.364;6.788;2022-11-20T17:18:35;5.30;99.90
9215;DHT22;4642;51.364;6.788;2022-11-20T17:21:01;5.30;99.90
9215;DHT22;4642;51.364;6.788;2022-11-20T17:23:48;5.30;99.90
9215;DHT22;4642;51.364;6.788;2022-11-20T17:26:18;5.40;99.90
9215;DHT22;4642;51.364;6.788;2022-11-20T17:28:45;5.40;99.90
9215;DHT22;4642;51.364;6.788;2022-11-20T17:31:14;5.40;99.90
9215;DHT22;4642;51.364;6.788;2022-11-20T17:33:41;5.40;99.90
9215;DHT22;4642;51.364;6.788;2022-11-20T17:36:09;5.40;99.90
9215;DHT22;4642;51.364;6.788;2022-11-20T17:38:35;5.40;99.90
9215;DHT22;4642;51.364;6.788;2022-11-20T17:41:05;5.50;99.90